Time;durP1;ratioP1;P1;durP2;ratioP2;P2;SDS_P1;SDS_P2;PMS_P1;PMS_P2;Temp;Humidity;BMP_temperature;BMP_pressure;BME280_temperature;BME280_humidity;BME280_pressure;Samples;Min_cycle;Max_cycle;Signal;HPM_P1;HPM_P2
2021/08/29 00:01:41;;;;;;;3.87;3.47;;;21.70;56.50;;;;;;5022755;28;20220;-51
2021/08/29 00:04:06;;;;;;;5.37;3.90;;;21.70;56.40;;;;;;5017671;28;20569;-47
2021/08/29 00:06:32;;;;;;;4.27;3.87;;;21.70;56.10;;;;;;5014230;28;20201;-51
2021/08/29 00:08:58;;;;;;;5.23;3.83;;;21.70;56.10;;;;;;5018965;28;20598;-50
2021/08/29 00:11:24;;;;;;;4.63;4.07;;;21.70;55.60;;;;;;5019705;28;20189;-48
2021/08/29 00:13:49;;;;;;;6.20;3.53;;;21.70;55.20;;;;;;5014758;28;20197;-50
2021/08/29 00:16:15;;;;;;;6.83;3.67;;;21.60;55.40;;;;;;5020389;28;20437;-50
2021/08/29 00:18:40;;;;;;;4.13;3.73;;;21.50;55.30;;;;;;5024541;28;20241;-49
2021/08/29 00:21:06;;;;;;;4.00;3.60;;;21.40;56.30;;;;;;5016810;28;20247;-47
2021/08/29 00:23:32;;;;;;;4.30;3.90;;;21.40;56.70;;;;;;5028221;28;20205;-46
2021/08/29 00:25:57;;;;;;;3.97;3.63;;;21.40;56.50;;;;;;5019196;28;20197;-49
2021/08/29 00:28:23;;;;;;;4.43;4.03;;;21.50;57.10;;;;;;5026266;28;20209;-50
2021/08/29 00:30:48;;;;;;;3.83;3.10;;;21.50;56.80;;;;;;5020613;28;20198;-47
2021/08/29 00:33:14;;;;;;;5.77;3.60;;;21.50;56.60;;;;;;5022077;28;20190;-46
2021/08/29 00:35:40;;;;;;;3.90;3.60;;;21.60;56.70;;;;;;5018835;28;20610;-46
2021/08/29 00:38:05;;;;;;;3.40;3.10;;;21.60;56.80;;;;;;5027961;28;20189;-50
2021/08/29 00:40:31;;;;;;;4.07;3.23;;;21.60;56.80;;;;;;5026780;28;20284;-47
2021/08/29 00:42:56;;;;;;;3.47;3.13;;;21.70;56.70;;;;;;5010974;28;20200;-48
2021/08/29 00:45:24;;;;;;;5.00;3.73;;;21.70;56.60;;;;;;5022695;28;20193;-48
2021/08/29 00:47:50;;;;;;;3.00;2.80;;;21.70;56.30;;;;;;5022442;28;20197;-46
2021/08/29 00:50:16;;;;;;;4.70;4.10;;;21.80;56.50;;;;;;5018849;28;20437;-48
2021/08/29 00:52:42;;;;;;;4.23;3.80;;;21.80;56.50;;;;;;5026865;28;20193;-47
2021/08/29 00:55:10;;;;;;;3.93;3.60;;;21.80;56.40;;;;;;5019308;28;20958;-46
2021/08/29 00:57:42;;;;;;;4.17;3.77;;;21.80;55.90;;;;;;5024240;28;20451;-47
2021/08/29 01:00:11;;;;;;;3.60;3.30;;;21.80;55.60;;;;;;5017047;28;20445;-47
2021/08/29 01:02:39;;;;;;;4.67;3.77;;;21.80;56.10;;;;;;5025927;28;20492;-50
2021/08/29 01:05:08;;;;;;;4.63;4.23;;;21.80;56.00;;;;;;5026261;28;20955;-51
2021/08/29 01:07:48;;;;;;;4.40;4.00;;;21.80;55.70;;;;;;5016810;28;20444;-51
2021/08/29 01:10:19;;;;;;;5.43;3.90;;;21.80;55.70;;;;;;5016948;28;20448;-49
2021/08/29 01:12:48;;;;;;;4.10;3.50;;;21.70;55.70;;;;;;5018012;28;20974;-46
2021/08/29 01:15:14;;;;;;;4.97;4.10;;;21.70;56.00;;;;;;5017274;28;20531;-50
2021/08/29 01:17:44;;;;;;;3.50;3.20;;;21.70;55.80;;;;;;5020046;28;20469;-48
2021/08/29 01:20:20;;;;;;;4.00;3.60;;;21.70;56.40;;;;;;5015483;28;20453;-47
2021/08/29 01:22:48;;;;;;;4.40;4.00;;;21.70;56.60;;;;;;5015831;28;20495;-48
2021/08/29 01:25:20;;;;;;;4.00;3.70;;;21.70;56.50;;;;;;5026630;28;20444;-50
2021/08/29 01:27:56;;;;;;;4.13;3.83;;;21.70;56.40;;;;;;5021075;28;20960;-50
2021/08/29 01:30:22;;;;;;;3.87;3.57;;;21.80;56.40;;;;;;5019216;28;20448;-49
2021/08/29 01:32:49;;;;;;;4.07;3.77;;;21.70;56.20;;;;;;5016614;28;20462;-49
2021/08/29 01:35:15;;;;;;;4.70;3.77;;;21.70;56.10;;;;;;5022612;28;20201;-50
2021/08/29 01:37:42;;;;;;;4.77;3.97;;;21.70;56.40;;;;;;5021231;28;20563;-49
2021/08/29 01:40:09;;;;;;;4.57;4.20;;;21.70;55.80;;;;;;5024267;28;20444;-49
2021/08/29 01:42:37;;;;;;;5.27;3.93;;;21.60;55.90;;;;;;5023691;28;20486;-48
2021/08/29 01:45:03;;;;;;;4.10;3.60;;;21.60;57.00;;;;;;5012434;28;21100;-50
2021/08/29 01:47:29;;;;;;;4.20;3.90;;;21.50;57.00;;;;;;5019209;28;20452;-51
2021/08/29 01:49:55;;;;;;;4.60;4.20;;;21.50;57.10;;;;;;5015749;28;20473;-47
2021/08/29 01:52:21;;;;;;;4.10;3.70;;;21.50;57.30;;;;;;5014764;28;20464;-50
2021/08/29 01:54:46;;;;;;;4.87;4.47;;;21.60;57.30;;;;;;5015022;28;20625;-49
2021/08/29 01:57:15;;;;;;;4.50;4.20;;;21.60;57.20;;;;;;5023131;28;20228;-48
2021/08/29 01:59:42;;;;;;;4.13;3.83;;;21.60;56.80;;;;;;5013462;28;20621;-49
2021/08/29 02:02:08;;;;;;;4.10;3.80;;;21.50;56.50;;;;;;5014807;28;21197;-47
2021/08/29 02:04:34;;;;;;;4.70;3.73;;;21.50;56.90;;;;;;5017726;28;20527;-48
2021/08/29 02:07:22;;;;;;;4.20;3.87;;;21.40;57.00;;;;;;5019171;28;20200;-49
2021/08/29 02:09:51;;;;;;;4.67;4.00;;;21.30;57.60;;;;;;5016342;28;20447;-46
2021/08/29 02:12:17;;;;;;;5.10;4.63;;;21.30;57.50;;;;;;5014837;28;20515;-49
2021/08/29 02:14:58;;;;;;;5.03;4.27;;;21.30;57.40;;;;;;5022298;28;20519;-47
2021/08/29 02:17:25;;;;;;;4.80;4.40;;;21.30;58.50;;;;;;5019393;28;20518;-50
2021/08/29 02:19:52;;;;;;;4.53;4.10;;;21.30;57.70;;;;;;5021040;28;20455;-49
2021/08/29 02:22:18;;;;;;;4.73;4.33;;;21.20;57.40;;;;;;5026172;28;20582;-47
2021/08/29 02:24:45;;;;;;;5.07;4.67;;;21.20;57.50;;;;;;5014742;28;20513;-47
2021/08/29 02:27:11;;;;;;;4.67;4.27;;;21.10;58.10;;;;;;5025805;28;20970;-50
2021/08/29 02:29:38;;;;;;;4.27;3.97;;;21.10;58.70;;;;;;5022240;28;20518;-47
2021/08/29 02:32:04;;;;;;;3.90;3.60;;;21.20;58.80;;;;;;5022940;28;20432;-46
2021/08/29 02:34:30;;;;;;;3.63;3.30;;;21.20;58.50;;;;;;5021250;28;20504;-46
2021/08/29 02:36:57;;;;;;;4.63;4.23;;;21.30;58.70;;;;;;5024013;28;20443;-46
2021/08/29 02:39:25;;;;;;;4.00;3.67;;;21.30;58.60;;;;;;5020731;28;20185;-49
2021/08/29 02:41:51;;;;;;;4.43;4.03;;;21.40;58.00;;;;;;5019930;28;20472;-47
2021/08/29 02:44:19;;;;;;;4.33;4.03;;;21.40;58.00;;;;;;5018624;28;20788;-49
2021/08/29 02:46:46;;;;;;;4.43;4.03;;;21.40;58.00;;;;;;5026226;28;20198;-46
2021/08/29 02:49:13;;;;;;;4.63;4.00;;;21.40;58.20;;;;;;5018131;28;20903;-46
2021/08/29 02:51:39;;;;;;;5.43;3.97;;;21.40;58.00;;;;;;5020000;28;20444;-47
2021/08/29 02:54:04;;;;;;;3.80;3.50;;;21.40;57.80;;;;;;5026301;28;20937;-47
2021/08/29 02:56:33;;;;;;;4.10;3.80;;;21.40;58.30;;;;;;5021457;28;20201;-46
2021/08/29 02:58:59;;;;;;;4.10;3.80;;;21.40;58.20;;;;;;5021265;28;20190;-46
2021/08/29 03:01:24;;;;;;;6.90;4.43;;;21.40;58.10;;;;;;5023307;28;20570;-48
2021/08/29 03:03:50;;;;;;;3.90;3.60;;;21.40;58.10;;;;;;5029076;28;20204;-46
2021/08/29 03:06:16;;;;;;;4.23;3.93;;;21.40;58.10;;;;;;5021370;28;20204;-46
2021/08/29 03:08:42;;;;;;;4.30;3.90;;;21.50;58.20;;;;;;5015031;28;20235;-47
2021/08/29 03:11:07;;;;;;;4.77;4.27;;;21.50;58.00;;;;;;5024022;28;20190;-46
2021/08/29 03:13:34;;;;;;;3.97;3.57;;;21.40;58.20;;;;;;5018447;28;20649;-46
2021/08/29 03:15:59;;;;;;;4.80;4.00;;;21.50;58.30;;;;;;5013845;28;20190;-47
2021/08/29 03:18:26;;;;;;;3.90;3.60;;;21.50;58.40;;;;;;5020343;28;20527;-50
2021/08/29 03:20:52;;;;;;;4.37;3.97;;;21.50;58.10;;;;;;5014540;28;20214;-49
2021/08/29 03:23:18;;;;;;;3.43;3.17;;;21.50;58.10;;;;;;5027461;28;20464;-45
2021/08/29 03:25:44;;;;;;;4.60;4.20;;;21.50;58.30;;;;;;5017995;28;20470;-48
2021/08/29 03:28:09;;;;;;;3.83;3.53;;;21.50;58.30;;;;;;5020202;28;20197;-45
2021/08/29 03:30:37;;;;;;;3.90;3.60;;;21.40;58.30;;;;;;5019200;28;20198;-45
2021/08/29 03:33:03;;;;;;;3.40;3.10;;;21.40;58.50;;;;;;5029977;28;20194;-46
2021/08/29 03:35:29;;;;;;;3.73;3.33;;;21.40;58.50;;;;;;5017154;28;20488;-47
2021/08/29 03:37:55;;;;;;;4.50;3.57;;;21.40;58.40;;;;;;5015891;28;22018;-46
2021/08/29 03:40:22;;;;;;;3.00;2.80;;;21.30;58.30;;;;;;5022303;28;20276;-46
2021/08/29 03:42:48;;;;;;;5.17;3.90;;;21.30;58.60;;;;;;5027501;28;20261;-47
2021/08/29 03:45:14;;;;;;;3.73;3.43;;;21.30;59.30;;;;;;5023596;28;20459;-48
2021/08/29 03:47:40;;;;;;;3.90;3.60;;;21.40;58.80;;;;;;5018301;28;20943;-46
2021/08/29 03:50:07;;;;;;;6.40;3.90;;;21.40;58.70;;;;;;5019125;28;20228;-46
2021/08/29 03:52:33;;;;;;;4.97;4.50;;;21.40;58.70;;;;;;5018116;28;20448;-47
2021/08/29 03:54:59;;;;;;;3.83;3.40;;;21.40;58.70;;;;;;5025709;28;20496;-46
2021/08/29 03:57:25;;;;;;;4.37;3.97;;;21.30;58.20;;;;;;5016116;28;21071;-46
2021/08/29 03:59:51;;;;;;;4.40;3.90;;;21.30;58.80;;;;;;5028305;28;20213;-45
2021/08/29 04:02:17;;;;;;;4.50;3.60;;;21.30;58.90;;;;;;5027578;28;21052;-47
2021/08/29 04:04:43;;;;;;;3.63;3.33;;;21.30;58.70;;;;;;5022489;28;20267;-46
2021/08/29 04:07:09;;;;;;;4.20;3.90;;;21.20;59.30;;;;;;5034195;28;20194;-46
2021/08/29 04:09:36;;;;;;;3.50;3.20;;;21.30;59.30;;;;;;5021179;28;20444;-47
2021/08/29 04:12:02;;;;;;;4.03;3.63;;;21.30;59.00;;;;;;5020671;28;20443;-50
2021/08/29 04:14:29;;;;;;;5.10;4.17;;;21.40;59.10;;;;;;5017067;28;20919;-50
2021/08/29 04:16:59;;;;;;;3.73;3.43;;;21.40;58.80;;;;;;5019259;28;20539;-51
2021/08/29 04:19:26;;;;;;;3.93;3.63;;;21.40;58.90;;;;;;5018577;28;20480;-50
2021/08/29 04:21:53;;;;;;;4.57;4.07;;;21.40;58.80;;;;;;5030563;28;20543;-49
2021/08/29 04:24:19;;;;;;;6.50;4.13;;;21.50;58.90;;;;;;5029052;28;20445;-49
2021/08/29 04:26:45;;;;;;;3.93;3.63;;;21.50;58.70;;;;;;5022626;28;20535;-50
2021/08/29 04:29:11;;;;;;;3.60;3.40;;;21.50;59.10;;;;;;5019429;28;20452;-49
2021/08/29 04:31:37;;;;;;;3.97;3.23;;;21.50;58.70;;;;;;5013923;28;20797;-50
2021/08/29 04:34:09;;;;;;;3.20;3.00;;;21.50;58.60;;;;;;5013663;28;20193;-47
2021/08/29 04:36:37;;;;;;;5.37;3.50;;;21.50;58.70;;;;;;5016030;28;20212;-48
2021/08/29 04:39:05;;;;;;;4.30;3.90;;;21.50;58.60;;;;;;5019006;28;20464;-51
2021/08/29 04:41:31;;;;;;;4.23;3.87;;;21.50;58.40;;;;;;5021051;28;20546;-49
2021/08/29 04:43:56;;;;;;;3.07;2.87;;;21.40;58.60;;;;;;5023733;28;20951;-50
2021/08/29 04:46:22;;;;;;;3.70;3.40;;;21.40;58.80;;;;;;5024013;28;20645;-50
2021/08/29 04:48:48;;;;;;;4.33;4.03;;;21.40;58.70;;;;;;5023061;28;20205;-47
2021/08/29 04:51:13;;;;;;;9.33;4.17;;;21.40;58.60;;;;;;5020776;28;20448;-46
2021/08/29 04:53:39;;;;;;;3.80;3.50;;;21.30;58.50;;;;;;5018937;28;20252;-49
2021/08/29 04:56:04;;;;;;;5.60;3.70;;;21.20;58.80;;;;;;5020141;28;20189;-47
2021/08/29 04:58:30;;;;;;;5.90;4.33;;;21.20;59.00;;;;;;5019826;28;20201;-47
2021/08/29 05:00:56;;;;;;;3.93;3.63;;;21.10;59.10;;;;;;5018682;28;20228;-46
2021/08/29 05:03:21;;;;;;;6.90;3.60;;;20.90;59.40;;;;;;5024704;28;20241;-47
2021/08/29 05:05:47;;;;;;;4.00;3.70;;;20.90;60.00;;;;;;5017085;28;20621;-47
2021/08/29 05:08:12;;;;;;;4.87;4.37;;;20.90;59.80;;;;;;5027314;28;20210;-49
2021/08/29 05:10:39;;;;;;;4.27;3.70;;;20.80;59.40;;;;;;5014064;28;20252;-48
2021/08/29 05:13:04;;;;;;;5.10;4.70;;;20.70;60.10;;;;;;5024316;28;20607;-46
2021/08/29 05:15:31;;;;;;;5.10;4.60;;;20.70;60.20;;;;;;5017613;28;20493;-46
2021/08/29 05:17:57;;;;;;;3.90;3.60;;;20.50;60.50;;;;;;5017378;28;20239;-47
2021/08/29 05:20:23;;;;;;;4.60;4.20;;;20.50;61.10;;;;;;5014562;28;20444;-45
2021/08/29 05:22:49;;;;;;;5.70;5.20;;;20.40;61.10;;;;;;5015054;28;20397;-46
2021/08/29 05:25:14;;;;;;;11.37;7.90;;;20.10;62.00;;;;;;5022115;28;20989;-47
2021/08/29 05:27:40;;;;;;;11.90;8.53;;;20.20;62.00;;;;;;5010927;28;20241;-49
2021/08/29 05:30:06;;;;;;;9.10;6.03;;;20.20;61.80;;;;;;5015155;28;20198;-47
2021/08/29 05:32:32;;;;;;;8.10;6.00;;;20.00;62.30;;;;;;5027416;28;20197;-46
2021/08/29 05:34:57;;;;;;;6.57;5.97;;;19.90;62.50;;;;;;5021303;28;20443;-48
2021/08/29 05:37:23;;;;;;;5.20;4.80;;;20.00;61.90;;;;;;5013488;28;20259;-47
2021/08/29 05:39:49;;;;;;;5.83;5.23;;;20.10;61.90;;;;;;5011961;28;20285;-46
2021/08/29 05:42:14;;;;;;;5.03;4.50;;;20.10;62.00;;;;;;5026946;28;20315;-45
2021/08/29 05:44:40;;;;;;;4.60;4.20;;;19.90;61.60;;;;;;5019491;28;20198;-47
2021/08/29 05:47:06;;;;;;;7.47;5.47;;;19.90;62.40;;;;;;5018961;28;20218;-47
2021/08/29 05:49:31;;;;;;;5.37;4.97;;;19.90;62.40;;;;;;5015323;28;20198;-46
2021/08/29 05:51:57;;;;;;;5.23;4.40;;;19.90;62.30;;;;;;5018225;28;20200;-48
2021/08/29 05:54:23;;;;;;;4.90;4.50;;;19.70;62.90;;;;;;5021201;28;20225;-47
2021/08/29 05:56:48;;;;;;;4.63;4.30;;;19.70;63.00;;;;;;5021382;28;20204;-47
2021/08/29 05:59:14;;;;;;;4.13;3.83;;;19.70;63.40;;;;;;5014744;28;20197;-47
2021/08/29 06:01:40;;;;;;;5.40;4.90;;;19.70;63.10;;;;;;5028043;28;20224;-46
2021/08/29 06:04:06;;;;;;;4.87;4.47;;;19.80;62.80;;;;;;5024781;28;20200;-50
2021/08/29 06:06:33;;;;;;;4.20;3.90;;;19.90;62.50;;;;;;5028552;28;20436;-47
2021/08/29 06:09:00;;;;;;;4.83;4.43;;;19.90;62.30;;;;;;5028668;28;20211;-47
2021/08/29 06:11:26;;;;;;;6.43;4.60;;;19.90;62.50;;;;;;5021655;28;20483;-47
2021/08/29 06:13:51;;;;;;;4.47;4.13;;;20.00;62.40;;;;;;5023391;28;20477;-49
2021/08/29 06:16:17;;;;;;;4.70;4.30;;;20.00;62.30;;;;;;5019519;28;20196;-47
2021/08/29 06:18:42;;;;;;;4.80;4.40;;;20.00;62.50;;;;;;5018271;28;20300;-46
2021/08/29 06:21:08;;;;;;;4.93;4.53;;;19.90;62.90;;;;;;5018886;28;20688;-47
2021/08/29 06:23:33;;;;;;;4.63;4.23;;;19.90;62.90;;;;;;5015977;28;20193;-49
2021/08/29 06:25:59;;;;;;;5.07;4.60;;;19.90;63.00;;;;;;5023617;28;20647;-46
2021/08/29 06:28:25;;;;;;;4.23;3.93;;;19.90;63.10;;;;;;5019385;28;20263;-51
2021/08/29 06:30:50;;;;;;;4.80;4.30;;;19.80;63.40;;;;;;5026038;28;20196;-46
2021/08/29 06:33:16;;;;;;;3.83;3.53;;;19.90;63.60;;;;;;5026210;28;20285;-47
2021/08/29 06:35:41;;;;;;;4.90;4.50;;;19.90;63.50;;;;;;5016926;28;20198;-49
2021/08/29 06:38:07;;;;;;;4.07;3.70;;;19.90;63.30;;;;;;5017938;28;20194;-47
2021/08/29 06:40:33;;;;;;;3.70;3.40;;;20.00;63.40;;;;;;5019184;28;20668;-45
2021/08/29 06:42:59;;;;;;;3.13;2.87;;;20.00;63.30;;;;;;5027442;28;20297;-45
2021/08/29 06:45:24;;;;;;;4.10;3.80;;;20.10;63.50;;;;;;5018018;28;20198;-49
2021/08/29 06:47:50;;;;;;;4.47;3.80;;;20.10;63.40;;;;;;5029711;28;20193;-46
2021/08/29 06:50:15;;;;;;;4.33;3.93;;;20.20;63.30;;;;;;5021064;28;20201;-46
2021/08/29 06:52:41;;;;;;;4.23;3.93;;;20.20;63.10;;;;;;5016175;28;20193;-46
2021/08/29 06:55:07;;;;;;;4.23;3.93;;;20.20;62.90;;;;;;5017758;28;20190;-45
2021/08/29 06:57:33;;;;;;;3.50;3.20;;;20.20;62.70;;;;;;5017839;28;20217;-46
2021/08/29 06:59:58;;;;;;;3.50;3.13;;;20.20;62.50;;;;;;5025093;28;20475;-47
2021/08/29 07:02:24;;;;;;;3.50;3.20;;;20.00;62.70;;;;;;5014691;28;20606;-49
2021/08/29 07:04:50;;;;;;;3.10;2.90;;;20.00;63.20;;;;;;5017956;28;20259;-50
2021/08/29 07:07:16;;;;;;;3.10;2.90;;;19.90;63.00;;;;;;5030535;28;20188;-49
2021/08/29 07:09:42;;;;;;;3.40;3.10;;;19.80;63.50;;;;;;5029040;28;20204;-50
2021/08/29 07:12:09;;;;;;;2.93;2.57;;;19.80;63.70;;;;;;5030620;28;20551;-50
2021/08/29 07:14:35;;;;;;;2.73;2.53;;;19.80;63.80;;;;;;5016965;28;20441;-50
2021/08/29 07:17:00;;;;;;;3.13;2.83;;;19.90;63.70;;;;;;5022425;28;20443;-49
2021/08/29 07:19:26;;;;;;;2.50;2.30;;;20.00;63.70;;;;;;5032051;28;20970;-49
2021/08/29 07:21:52;;;;;;;3.30;2.70;;;20.00;63.60;;;;;;5030480;28;20229;-49
2021/08/29 07:24:17;;;;;;;2.53;2.33;;;20.00;64.00;;;;;;5032630;28;20611;-49
2021/08/29 07:26:43;;;;;;;2.90;2.70;;;20.00;64.20;;;;;;5022414;28;20189;-49
2021/08/29 07:29:09;;;;;;;2.93;2.73;;;20.10;64.00;;;;;;5030332;28;20197;-50
2021/08/29 07:31:34;;;;;;;2.53;2.33;;;20.20;64.00;;;;;;5033662;28;20558;-46
2021/08/29 07:34:00;;;;;;;2.70;2.50;;;20.20;64.00;;;;;;5032531;28;20736;-45
2021/08/29 07:36:26;;;;;;;2.60;2.40;;;20.20;64.00;;;;;;5028945;28;20653;-46
2021/08/29 07:38:51;;;;;;;2.60;2.40;;;20.10;64.10;;;;;;5031946;28;20201;-49
2021/08/29 07:41:17;;;;;;;2.47;2.27;;;20.10;64.30;;;;;;5031637;28;20225;-47
2021/08/29 07:43:42;;;;;;;2.70;2.50;;;20.10;64.20;;;;;;5031041;28;20689;-46
2021/08/29 07:46:08;;;;;;;2.30;2.10;;;20.20;64.30;;;;;;5044516;28;20212;-46
2021/08/29 07:48:34;;;;;;;2.20;2.03;;;20.10;64.20;;;;;;5018815;28;20538;-50
2021/08/29 07:51:00;;;;;;;3.77;2.30;;;20.00;64.60;;;;;;5020129;28;20478;-46
2021/08/29 07:53:26;;;;;;;2.17;2.00;;;20.00;64.40;;;;;;5032916;28;20659;-47
2021/08/29 07:55:52;;;;;;;2.80;2.60;;;20.10;64.40;;;;;;5032797;28;20420;-48
2021/08/29 07:58:18;;;;;;;2.80;2.60;;;20.20;64.50;;;;;;5027758;28;20514;-46
2021/08/29 08:00:44;;;;;;;2.10;1.90;;;20.30;64.50;;;;;;5019746;28;20202;-46
2021/08/29 08:03:09;;;;;;;1.77;1.67;;;20.20;64.30;;;;;;5042775;28;20208;-49
2021/08/29 08:05:35;;;;;;;2.17;1.63;;;20.30;64.00;;;;;;5020856;28;20435;-47
2021/08/29 08:08:01;;;;;;;1.40;1.30;;;20.30;64.10;;;;;;5025195;28;20560;-45
2021/08/29 08:10:28;;;;;;;1.47;1.37;;;20.30;64.20;;;;;;5022827;28;20194;-47
2021/08/29 08:12:53;;;;;;;1.67;1.57;;;20.30;63.90;;;;;;5025977;28;20197;-50
2021/08/29 08:15:19;;;;;;;1.60;1.50;;;20.20;64.10;;;;;;5030368;28;20930;-45
2021/08/29 08:17:44;;;;;;;1.37;1.30;;;20.20;64.20;;;;;;5029881;28;20221;-45
2021/08/29 08:20:11;;;;;;;1.80;1.70;;;20.20;64.60;;;;;;5031989;28;20204;-50
2021/08/29 08:22:36;;;;;;;1.33;1.30;;;20.20;64.80;;;;;;5032137;28;20220;-50
2021/08/29 08:25:02;;;;;;;1.50;1.40;;;20.20;65.10;;;;;;5031538;28;20447;-45
2021/08/29 08:27:28;;;;;;;1.10;1.10;;;20.30;65.40;;;;;;5027810;28;20699;-45
2021/08/29 08:29:54;;;;;;;1.87;1.20;;;20.30;65.50;;;;;;5025343;28;20543;-47
2021/08/29 08:32:19;;;;;;;1.07;1.07;;;20.20;65.40;;;;;;5032117;28;20216;-49
2021/08/29 08:34:45;;;;;;;1.00;1.00;;;20.10;65.90;;;;;;5032227;28;20208;-45
2021/08/29 08:37:10;;;;;;;1.50;1.40;;;20.10;65.70;;;;;;5030351;28;20197;-45
2021/08/29 08:39:36;;;;;;;1.97;1.87;;;19.90;66.10;;;;;;5027459;28;20646;-46
2021/08/29 08:42:02;;;;;;;1.57;1.47;;;19.80;67.20;;;;;;5013663;28;20228;-46
2021/08/29 08:44:27;;;;;;;1.57;1.47;;;19.80;67.50;;;;;;5030935;28;20243;-46
2021/08/29 08:46:56;;;;;;;1.53;1.43;;;19.90;68.00;;;;;;5026582;28;20202;-46
2021/08/29 08:49:23;;;;;;;1.23;1.13;;;20.00;67.90;;;;;;5029378;28;20201;-45
2021/08/29 08:51:52;;;;;;;1.63;1.00;;;19.90;67.30;;;;;;5026628;28;20518;-46
2021/08/29 08:54:19;;;;;;;0.97;0.97;;;20.00;67.80;;;;;;5025952;28;20436;-46
2021/08/29 08:56:47;;;;;;;0.77;0.77;;;20.00;66.80;;;;;;5029824;28;20774;-47
2021/08/29 08:59:14;;;;;;;0.90;0.90;;;20.00;66.20;;;;;;5029243;28;20448;-45
2021/08/29 09:01:40;;;;;;;1.10;1.00;;;19.90;65.60;;;;;;5019091;28;20485;-46
2021/08/29 09:04:06;;;;;;;1.27;1.00;;;19.60;66.00;;;;;;5029799;28;20442;-46
2021/08/29 09:06:34;;;;;;;1.70;0.90;;;19.50;67.40;;;;;;5031202;28;20535;-45
2021/08/29 09:09:02;;;;;;;0.90;0.83;;;19.60;68.60;;;;;;5021787;28;20462;-46
2021/08/29 09:11:28;;;;;;;0.90;0.80;;;19.70;68.30;;;;;;5019142;28;20815;-46
2021/08/29 09:13:55;;;;;;;1.00;1.00;;;19.90;68.20;;;;;;5031162;28;20490;-47
2021/08/29 09:16:22;;;;;;;0.90;0.90;;;20.00;67.30;;;;;;5018590;28;20189;-46
2021/08/29 09:18:56;;;;;;;0.90;0.90;;;20.20;67.30;;;;;;5019301;28;20476;-45
2021/08/29 09:21:31;;;;;;;1.00;0.90;;;19.90;67.60;;;;;;5014960;28;20499;-46
2021/08/29 09:23:59;;;;;;;0.87;0.87;;;19.80;68.50;;;;;;5018486;28;20428;-46
2021/08/29 09:26:29;;;;;;;1.00;0.90;;;19.80;69.20;;;;;;5025137;28;20448;-47
2021/08/29 09:28:58;;;;;;;0.80;0.80;;;19.70;69.00;;;;;;5020931;28;20932;-46
2021/08/29 09:31:40;;;;;;;1.00;1.00;;;19.50;68.90;;;;;;5024202;28;20436;-45
2021/08/29 09:34:05;;;;;;;1.00;1.00;;;19.20;69.70;;;;;;5011402;28;20443;-46
2021/08/29 09:36:35;;;;;;;1.00;1.00;;;19.10;71.40;;;;;;5018304;28;20444;-45
2021/08/29 09:39:11;;;;;;;0.80;0.80;;;19.10;71.30;;;;;;5026168;28;20193;-45
2021/08/29 09:41:38;;;;;;;1.10;0.73;;;19.30;72.00;;;;;;5030369;28;20609;-46
2021/08/29 09:44:10;;;;;;;0.90;0.90;;;19.70;70.60;;;;;;5018540;28;20450;-45
2021/08/29 09:46:57;;;;;;;0.90;0.90;;;19.90;69.30;;;;;;5016621;28;20445;-46
2021/08/29 09:49:24;;;;;;;0.83;0.80;;;20.00;68.90;;;;;;5022252;28;20436;-48
2021/08/29 09:51:49;;;;;;;0.80;0.80;;;20.20;68.60;;;;;;5014572;28;20459;-50
2021/08/29 09:54:31;;;;;;;2.83;1.00;;;20.40;68.00;;;;;;5019101;28;20432;-50
2021/08/29 09:56:58;;;;;;;0.90;0.90;;;20.60;67.10;;;;;;5022757;28;20196;-50
2021/08/29 09:59:41;;;;;;;0.90;0.90;;;20.70;66.40;;;;;;5021384;28;21022;-50
2021/08/29 10:02:08;;;;;;;0.90;0.90;;;20.70;65.70;;;;;;5024949;28;20502;-50
2021/08/29 10:04:34;;;;;;;0.90;0.90;;;20.70;65.90;;;;;;5024863;28;20443;-50
2021/08/29 10:07:10;;;;;;;0.77;0.77;;;20.70;65.70;;;;;;5014014;28;20471;-50
2021/08/29 10:09:36;;;;;;;0.80;0.80;;;20.70;65.80;;;;;;5030081;28;20842;-49
2021/08/29 10:12:03;;;;;;;0.63;0.63;;;20.70;65.30;;;;;;5021422;28;20486;-50
2021/08/29 10:14:30;;;;;;;0.70;0.70;;;20.60;65.90;;;;;;5018252;28;20205;-46
2021/08/29 10:16:58;;;;;;;0.80;0.80;;;20.60;66.20;;;;;;5015885;28;20798;-49
2021/08/29 10:19:26;;;;;;;0.70;0.70;;;20.60;66.00;;;;;;5022901;28;20974;-47
2021/08/29 10:21:52;;;;;;;0.97;0.97;;;20.70;66.70;;;;;;5017673;28;20488;-47
2021/08/29 10:24:20;;;;;;;1.70;1.20;;;20.60;66.90;;;;;;5030976;28;20420;-49
2021/08/29 10:26:50;;;;;;;1.00;0.87;;;20.70;67.00;;;;;;5024430;28;20439;-46
2021/08/29 10:29:19;;;;;;;0.90;0.90;;;20.70;66.40;;;;;;5016296;28;20961;-47
2021/08/29 10:32:24;;;;;;;0.70;0.70;;;20.60;66.60;;;;;;5020990;28;21324;-47
2021/08/29 10:34:51;;;;;;;1.07;0.93;;;20.60;67.10;;;;;;5024486;28;20455;-48
2021/08/29 10:37:17;;;;;;;0.80;0.80;;;20.70;67.30;;;;;;5018905;28;20514;-47
2021/08/29 10:39:43;;;;;;;1.50;0.83;;;20.70;67.00;;;;;;5028665;28;20424;-50
2021/08/29 10:42:11;;;;;;;0.90;0.90;;;20.70;66.30;;;;;;5016224;28;20488;-48
2021/08/29 10:44:37;;;;;;;1.20;1.10;;;20.70;66.80;;;;;;5026354;28;20444;-50
2021/08/29 10:47:04;;;;;;;0.83;0.70;;;20.70;67.70;;;;;;5021590;28;20440;-51
2021/08/29 10:49:31;;;;;;;0.70;0.70;;;20.70;66.80;;;;;;5021202;28;20420;-48
2021/08/29 10:51:57;;;;;;;0.70;0.70;;;20.30;67.40;;;;;;5029422;28;20966;-47
2021/08/29 10:54:23;;;;;;;0.60;0.60;;;20.30;68.10;;;;;;5034056;28;20435;-47
2021/08/29 10:56:49;;;;;;;1.03;0.87;;;20.60;68.00;;;;;;5018781;28;20433;-46
2021/08/29 10:59:18;;;;;;;2.53;0.80;;;20.70;67.20;;;;;;5026235;28;20190;-46
2021/08/29 11:01:46;;;;;;;2.30;0.67;;;20.70;67.60;;;;;;5020706;28;20221;-46
2021/08/29 11:04:18;;;;;;;0.67;0.67;;;20.80;67.10;;;;;;5032212;28;20447;-50
2021/08/29 11:06:47;;;;;;;0.90;0.70;;;21.00;66.90;;;;;;5025386;28;20436;-46
2021/08/29 11:09:34;;;;;;;1.00;0.83;;;21.10;67.00;;;;;;5028256;28;20440;-46
2021/08/29 11:12:03;;;;;;;0.90;0.80;;;21.00;66.80;;;;;;5025786;28;20447;-50
2021/08/29 11:14:53;;;;;;;0.90;0.90;;;20.90;66.70;;;;;;5028528;28;20443;-48
2021/08/29 11:17:27;;;;;;;0.70;0.70;;;20.90;67.20;;;;;;5021079;28;20456;-47
2021/08/29 11:20:10;;;;;;;0.70;0.70;;;21.00;67.20;;;;;;5021872;28;20983;-48
2021/08/29 11:22:47;;;;;;;1.10;0.67;;;21.00;66.40;;;;;;5029317;28;20490;-46
2021/08/29 11:25:17;;;;;;;0.60;0.60;;;20.90;66.10;;;;;;5033832;28;20485;-46
2021/08/29 11:27:49;;;;;;;0.50;0.50;;;20.90;66.80;;;;;;5024077;28;21022;-46
2021/08/29 11:30:21;;;;;;;0.60;0.60;;;21.10;66.50;;;;;;5023903;28;20432;-46
2021/08/29 11:32:58;;;;;;;0.70;0.70;;;21.20;65.60;;;;;;5021183;28;20441;-46
2021/08/29 11:35:29;;;;;;;1.30;0.90;;;21.20;64.80;;;;;;5021368;28;20467;-46
2021/08/29 11:38:15;;;;;;;0.80;0.80;;;21.20;65.30;;;;;;5024050;28;20507;-47
2021/08/29 11:40:53;;;;;;;1.20;1.10;;;21.30;66.00;;;;;;5031877;28;20801;-45
2021/08/29 11:43:28;;;;;;;0.90;0.67;;;21.30;66.50;;;;;;5024098;28;20445;-46
2021/08/29 11:45:59;;;;;;;0.70;0.70;;;21.40;66.80;;;;;;5028295;28;20474;-47
2021/08/29 11:48:27;;;;;;;0.70;0.70;;;21.30;66.10;;;;;;5026660;28;20476;-46
2021/08/29 11:50:53;;;;;;;0.80;0.80;;;21.30;66.00;;;;;;5027363;28;21051;-46
2021/08/29 11:53:19;;;;;;;2.90;0.93;;;21.40;66.30;;;;;;5023581;28;20515;-48
2021/08/29 11:55:45;;;;;;;1.87;1.77;;;21.40;66.60;;;;;;5019168;28;20182;-45
2021/08/29 11:58:20;;;;;;;2.20;2.00;;;21.40;66.60;;;;;;5021867;28;20871;-47
2021/08/29 12:00:47;;;;;;;3.00;1.60;;;21.40;66.50;;;;;;5036272;28;20656;-45
2021/08/29 12:03:13;;;;;;;0.83;0.80;;;21.40;66.60;;;;;;5026635;28;20460;-45
2021/08/29 12:06:07;;;;;;;1.63;0.77;;;21.40;67.00;;;;;;5019985;28;20445;-49
2021/08/29 12:09:03;;;;;;;0.70;0.70;;;21.40;67.00;;;;;;5026641;28;20455;-46
2021/08/29 12:11:32;;;;;;;0.63;0.63;;;21.40;67.00;;;;;;5026057;28;20939;-45
2021/08/29 12:13:58;;;;;;;0.67;0.67;;;21.40;67.00;;;;;;5028230;28;20995;-45
2021/08/29 12:16:24;;;;;;;0.60;0.60;;;21.40;67.00;;;;;;5029564;28;20440;-44
2021/08/29 12:18:51;;;;;;;0.80;0.80;;;21.40;67.10;;;;;;5029020;28;20487;-47
2021/08/29 12:21:17;;;;;;;0.73;0.60;;;21.30;67.20;;;;;;5027884;28;20483;-48
2021/08/29 12:23:44;;;;;;;0.80;0.70;;;21.30;67.30;;;;;;5026829;28;20463;-49
2021/08/29 12:26:10;;;;;;;0.97;0.87;;;21.30;67.40;;;;;;5025398;28;20451;-49
2021/08/29 12:28:37;;;;;;;0.70;0.70;;;21.40;67.70;;;;;;5029260;28;20479;-48
2021/08/29 12:31:04;;;;;;;1.10;0.93;;;21.40;67.70;;;;;;5029165;28;20643;-47
2021/08/29 12:33:30;;;;;;;1.03;1.03;;;21.40;67.40;;;;;;5028003;28;20463;-46
2021/08/29 12:35:58;;;;;;;0.90;0.90;;;21.40;67.50;;;;;;5025845;28;20790;-46
2021/08/29 12:38:29;;;;;;;1.60;1.50;;;21.30;67.50;;;;;;5041447;28;20799;-47
2021/08/29 12:40:57;;;;;;;1.20;1.20;;;21.40;67.80;;;;;;5032429;28;20442;-47
2021/08/29 12:43:29;;;;;;;3.63;1.77;;;21.40;67.80;;;;;;5031661;28;20435;-50
2021/08/29 12:45:57;;;;;;;2.20;1.83;;;21.40;67.70;;;;;;5029102;28;20427;-48
2021/08/29 12:48:23;;;;;;;2.03;1.93;;;21.40;68.00;;;;;;5033477;28;20864;-49
2021/08/29 12:50:56;;;;;;;2.33;2.23;;;21.40;68.40;;;;;;5032056;28;20482;-47